sensor_id;sensor_type;location;lat;lon;timestamp;P1;durP1;ratioP1;P2;durP2;ratioP2
17790;SDS011;9019;48.132;-1.210;2023-06-14T00:01:22;35.77;;;27.00;;
17790;SDS011;9019;48.132;-1.210;2023-06-14T00:03:49;37.77;;;26.87;;
17790;SDS011;9019;48.132;-1.210;2023-06-14T00:06:17;33.90;;;26.93;;
17790;SDS011;9019;48.132;-1.210;2023-06-14T00:08:44;37.13;;;28.30;;
17790;SDS011;9019;48.132;-1.210;2023-06-14T00:11:11;34.40;;;27.60;;
17790;SDS011;9019;48.132;-1.210;2023-06-14T00:13:38;37.07;;;27.83;;
17790;SDS011;9019;48.132;-1.210;2023-06-14T00:16:08;36.07;;;28.47;;
17790;SDS011;9019;48.132;-1.210;2023-06-14T00:18:36;39.00;;;29.27;;
17790;SDS011;9019;48.132;-1.210;2023-06-14T00:21:03;41.00;;;29.37;;
17790;SDS011;9019;48.132;-1.210;2023-06-14T00:23:31;39.77;;;30.20;;
17790;SDS011;9019;48.132;-1.210;2023-06-14T00:25:58;38.23;;;29.37;;
17790;SDS011;9019;48.132;-1.210;2023-06-14T00:28:25;38.33;;;30.13;;
17790;SDS011;9019;48.132;-1.210;2023-06-14T00:30:52;44.07;;;30.60;;
17790;SDS011;9019;48.132;-1.210;2023-06-14T00:33:20;40.17;;;30.63;;
17790;SDS011;9019;48.132;-1.210;2023-06-14T00:35:48;40.17;;;29.53;;
17790;SDS011;9019;48.132;-1.210;2023-06-14T00:38:15;41.23;;;30.60;;
17790;SDS011;9019;48.132;-1.210;2023-06-14T00:40:42;39.60;;;29.87;;
17790;SDS011;9019;48.132;-1.210;2023-06-14T00:43:09;38.73;;;30.93;;
17790;SDS011;9019;48.132;-1.210;2023-06-14T00:45:36;42.60;;;32.20;;
17790;SDS011;9019;48.132;-1.210;2023-06-14T00:48:04;43.83;;;32.93;;
17790;SDS011;9019;48.132;-1.210;2023-06-14T00:50:32;45.10;;;32.93;;
17790;SDS011;9019;48.132;-1.210;2023-06-14T00:53:01;43.40;;;32.70;;
17790;SDS011;9019;48.132;-1.210;2023-06-14T00:55:28;45.13;;;33.57;;
17790;SDS011;9019;48.132;-1.210;2023-06-14T00:57:58;42.50;;;32.40;;
17790;SDS011;9019;48.132;-1.210;2023-06-14T01:00:25;42.70;;;32.83;;
17790;SDS011;9019;48.132;-1.210;2023-06-14T01:02:53;42.73;;;33.13;;
17790;SDS011;9019;48.132;-1.210;2023-06-14T01:05:21;49.93;;;34.57;;
17790;SDS011;9019;48.132;-1.210;2023-06-14T01:07:55;43.87;;;33.90;;
17790;SDS011;9019;48.132;-1.210;2023-06-14T01:10:27;47.90;;;34.43;;
17790;SDS011;9019;48.132;-1.210;2023-06-14T01:12:58;45.10;;;34.67;;
17790;SDS011;9019;48.132;-1.210;2023-06-14T01:15:26;45.97;;;35.03;;
17790;SDS011;9019;48.132;-1.210;2023-06-14T01:17:54;47.73;;;35.90;;
17790;SDS011;9019;48.132;-1.210;2023-06-14T01:20:28;47.83;;;35.47;;
17790;SDS011;9019;48.132;-1.210;2023-06-14T01:22:57;48.00;;;35.17;;
17790;SDS011;9019;48.132;-1.210;2023-06-14T01:25:24;49.80;;;35.67;;
17790;SDS011;9019;48.132;-1.210;2023-06-14T01:27:53;47.87;;;35.97;;
17790;SDS011;9019;48.132;-1.210;2023-06-14T01:30:22;45.40;;;35.77;;
17790;SDS011;9019;48.132;-1.210;2023-06-14T01:32:50;51.30;;;37.10;;
17790;SDS011;9019;48.132;-1.210;2023-06-14T01:35:18;51.03;;;37.83;;
17790;SDS011;9019;48.132;-1.210;2023-06-14T01:37:45;50.57;;;37.50;;
17790;SDS011;9019;48.132;-1.210;2023-06-14T01:40:15;48.77;;;36.73;;
17790;SDS011;9019;48.132;-1.210;2023-06-14T01:42:43;53.77;;;38.37;;
17790;SDS011;9019;48.132;-1.210;2023-06-14T01:45:13;54.03;;;39.07;;
17790;SDS011;9019;48.132;-1.210;2023-06-14T01:47:40;49.53;;;39.40;;
17790;SDS011;9019;48.132;-1.210;2023-06-14T01:50:08;56.53;;;38.77;;
17790;SDS011;9019;48.132;-1.210;2023-06-14T01:52:36;51.40;;;38.47;;
17790;SDS011;9019;48.132;-1.210;2023-06-14T01:55:03;51.53;;;39.10;;
17790;SDS011;9019;48.132;-1.210;2023-06-14T01:57:32;55.37;;;39.63;;
17790;SDS011;9019;48.132;-1.210;2023-06-14T02:00:00;58.50;;;40.50;;
17790;SDS011;9019;48.132;-1.210;2023-06-14T02:02:28;57.80;;;40.03;;
17790;SDS011;9019;48.132;-1.210;2023-06-14T02:04:55;55.23;;;39.60;;
17790;SDS011;9019;48.132;-1.210;2023-06-14T02:07:23;54.00;;;39.43;;
17790;SDS011;9019;48.132;-1.210;2023-06-14T02:09:50;51.17;;;38.10;;
17790;SDS011;9019;48.132;-1.210;2023-06-14T02:12:17;59.73;;;41.40;;
17790;SDS011;9019;48.132;-1.210;2023-06-14T02:14:46;57.93;;;41.50;;
17790;SDS011;9019;48.132;-1.210;2023-06-14T02:17:13;59.47;;;40.33;;
17790;SDS011;9019;48.132;-1.210;2023-06-14T02:19:41;54.50;;;38.87;;
17790;SDS011;9019;48.132;-1.210;2023-06-14T02:22:08;57.83;;;40.47;;
17790;SDS011;9019;48.132;-1.210;2023-06-14T02:24:35;56.30;;;39.80;;
17790;SDS011;9019;48.132;-1.210;2023-06-14T02:27:03;58.50;;;40.30;;
17790;SDS011;9019;48.132;-1.210;2023-06-14T02:29:31;56.20;;;40.17;;
17790;SDS011;9019;48.132;-1.210;2023-06-14T02:32:00;56.33;;;41.37;;
17790;SDS011;9019;48.132;-1.210;2023-06-14T02:34:27;56.50;;;41.40;;
17790;SDS011;9019;48.132;-1.210;2023-06-14T02:36:54;57.57;;;41.10;;
17790;SDS011;9019;48.132;-1.210;2023-06-14T02:39:22;55.77;;;40.70;;
17790;SDS011;9019;48.132;-1.210;2023-06-14T02:41:49;60.77;;;42.63;;
17790;SDS011;9019;48.132;-1.210;2023-06-14T02:44:17;57.47;;;43.43;;
17790;SDS011;9019;48.132;-1.210;2023-06-14T02:46:44;58.17;;;41.70;;
17790;SDS011;9019;48.132;-1.210;2023-06-14T02:49:13;59.47;;;42.30;;
17790;SDS011;9019;48.132;-1.210;2023-06-14T02:51:40;63.13;;;42.80;;
17790;SDS011;9019;48.132;-1.210;2023-06-14T02:54:07;56.70;;;41.73;;
17790;SDS011;9019;48.132;-1.210;2023-06-14T02:56:35;55.67;;;40.80;;
17790;SDS011;9019;48.132;-1.210;2023-06-14T02:59:02;56.83;;;41.97;;
17790;SDS011;9019;48.132;-1.210;2023-06-14T03:01:29;59.10;;;42.83;;
17790;SDS011;9019;48.132;-1.210;2023-06-14T03:03:59;58.03;;;43.67;;
17790;SDS011;9019;48.132;-1.210;2023-06-14T03:06:29;61.60;;;44.77;;
17790;SDS011;9019;48.132;-1.210;2023-06-14T03:08:56;62.73;;;45.37;;
17790;SDS011;9019;48.132;-1.210;2023-06-14T03:11:26;68.87;;;45.47;;
17790;SDS011;9019;48.132;-1.210;2023-06-14T03:13:53;66.93;;;46.07;;
17790;SDS011;9019;48.132;-1.210;2023-06-14T03:16:21;66.07;;;46.07;;
17790;SDS011;9019;48.132;-1.210;2023-06-14T03:18:49;69.43;;;46.67;;
17790;SDS011;9019;48.132;-1.210;2023-06-14T03:21:17;74.33;;;49.03;;
17790;SDS011;9019;48.132;-1.210;2023-06-14T03:23:46;67.30;;;47.03;;
17790;SDS011;9019;48.132;-1.210;2023-06-14T03:26:14;65.70;;;46.53;;
17790;SDS011;9019;48.132;-1.210;2023-06-14T03:28:43;68.00;;;47.53;;
17790;SDS011;9019;48.132;-1.210;2023-06-14T03:31:11;66.60;;;47.30;;
17790;SDS011;9019;48.132;-1.210;2023-06-14T03:33:38;71.47;;;47.47;;
17790;SDS011;9019;48.132;-1.210;2023-06-14T03:36:05;65.37;;;45.83;;
17790;SDS011;9019;48.132;-1.210;2023-06-14T03:38:32;67.40;;;46.63;;
17790;SDS011;9019;48.132;-1.210;2023-06-14T03:41:01;72.00;;;47.00;;
17790;SDS011;9019;48.132;-1.210;2023-06-14T03:43:28;69.80;;;48.17;;
17790;SDS011;9019;48.132;-1.210;2023-06-14T03:45:56;70.83;;;48.63;;
17790;SDS011;9019;48.132;-1.210;2023-06-14T03:48:23;71.70;;;48.70;;
17790;SDS011;9019;48.132;-1.210;2023-06-14T03:50:51;70.83;;;49.50;;
17790;SDS011;9019;48.132;-1.210;2023-06-14T03:53:19;73.17;;;50.37;;
17790;SDS011;9019;48.132;-1.210;2023-06-14T03:55:48;70.30;;;48.73;;
17790;SDS011;9019;48.132;-1.210;2023-06-14T03:58:18;78.20;;;49.00;;
17790;SDS011;9019;48.132;-1.210;2023-06-14T04:00:46;72.07;;;49.50;;
17790;SDS011;9019;48.132;-1.210;2023-06-14T04:03:13;70.90;;;49.07;;
17790;SDS011;9019;48.132;-1.210;2023-06-14T04:05:41;75.90;;;51.57;;
17790;SDS011;9019;48.132;-1.210;2023-06-14T04:08:09;76.70;;;50.80;;
17790;SDS011;9019;48.132;-1.210;2023-06-14T04:10:39;73.67;;;51.07;;
17790;SDS011;9019;48.132;-1.210;2023-06-14T04:13:07;76.80;;;51.30;;
17790;SDS011;9019;48.132;-1.210;2023-06-14T04:15:38;77.80;;;51.50;;
17790;SDS011;9019;48.132;-1.210;2023-06-14T04:18:07;76.37;;;52.03;;
17790;SDS011;9019;48.132;-1.210;2023-06-14T04:20:34;71.80;;;50.13;;
17790;SDS011;9019;48.132;-1.210;2023-06-14T04:23:10;75.27;;;51.97;;
17790;SDS011;9019;48.132;-1.210;2023-06-14T04:25:38;74.90;;;49.87;;
17790;SDS011;9019;48.132;-1.210;2023-06-14T04:28:10;75.93;;;51.70;;
17790;SDS011;9019;48.132;-1.210;2023-06-14T04:30:39;77.33;;;51.67;;
17790;SDS011;9019;48.132;-1.210;2023-06-14T04:33:06;74.80;;;50.40;;
17790;SDS011;9019;48.132;-1.210;2023-06-14T04:35:35;78.90;;;51.03;;
17790;SDS011;9019;48.132;-1.210;2023-06-14T04:38:04;79.00;;;51.40;;
17790;SDS011;9019;48.132;-1.210;2023-06-14T04:40:34;77.63;;;52.60;;
17790;SDS011;9019;48.132;-1.210;2023-06-14T04:43:07;77.53;;;51.00;;
17790;SDS011;9019;48.132;-1.210;2023-06-14T04:45:39;78.50;;;51.50;;
17790;SDS011;9019;48.132;-1.210;2023-06-14T04:48:10;74.97;;;49.23;;
17790;SDS011;9019;48.132;-1.210;2023-06-14T04:50:37;79.50;;;52.00;;
17790;SDS011;9019;48.132;-1.210;2023-06-14T04:53:06;74.00;;;50.43;;
17790;SDS011;9019;48.132;-1.210;2023-06-14T04:55:33;76.30;;;50.57;;
17790;SDS011;9019;48.132;-1.210;2023-06-14T04:58:01;73.83;;;49.37;;
17790;SDS011;9019;48.132;-1.210;2023-06-14T05:00:28;75.67;;;51.13;;
17790;SDS011;9019;48.132;-1.210;2023-06-14T05:02:58;75.73;;;49.67;;
17790;SDS011;9019;48.132;-1.210;2023-06-14T05:05:26;73.20;;;49.90;;
17790;SDS011;9019;48.132;-1.210;2023-06-14T05:07:53;74.77;;;51.00;;
17790;SDS011;9019;48.132;-1.210;2023-06-14T05:10:20;72.27;;;50.63;;
17790;SDS011;9019;48.132;-1.210;2023-06-14T05:12:47;74.87;;;50.63;;
17790;SDS011;9019;48.132;-1.210;2023-06-14T05:15:15;77.90;;;51.47;;
17790;SDS011;9019;48.132;-1.210;2023-06-14T05:17:42;68.67;;;49.13;;
17790;SDS011;9019;48.132;-1.210;2023-06-14T05:20:11;78.83;;;48.93;;
17790;SDS011;9019;48.132;-1.210;2023-06-14T05:22:38;71.53;;;49.37;;
17790;SDS011;9019;48.132;-1.210;2023-06-14T05:25:06;73.33;;;47.63;;
17790;SDS011;9019;48.132;-1.210;2023-06-14T05:27:33;70.63;;;48.13;;
17790;SDS011;9019;48.132;-1.210;2023-06-14T05:30:02;64.50;;;46.93;;
17790;SDS011;9019;48.132;-1.210;2023-06-14T05:32:30;63.60;;;46.60;;
17790;SDS011;9019;48.132;-1.210;2023-06-14T05:34:57;60.63;;;45.10;;
17790;SDS011;9019;48.132;-1.210;2023-06-14T05:37:26;61.73;;;44.83;;
17790;SDS011;9019;48.132;-1.210;2023-06-14T05:39:53;55.93;;;42.73;;
17790;SDS011;9019;48.132;-1.210;2023-06-14T05:42:20;56.03;;;41.87;;
17790;SDS011;9019;48.132;-1.210;2023-06-14T05:44:47;51.75;;;40.35;;
17790;SDS011;9019;48.132;-1.210;2023-06-14T05:47:14;49.50;;;38.47;;
17790;SDS011;9019;48.132;-1.210;2023-06-14T05:49:42;48.65;;;39.38;;
17790;SDS011;9019;48.132;-1.210;2023-06-14T05:52:09;47.63;;;38.83;;
17790;SDS011;9019;48.132;-1.210;2023-06-14T05:54:39;45.55;;;36.55;;
17790;SDS011;9019;48.132;-1.210;2023-06-14T05:57:07;46.17;;;36.55;;
17790;SDS011;9019;48.132;-1.210;2023-06-14T05:59:34;43.33;;;34.67;;
17790;SDS011;9019;48.132;-1.210;2023-06-14T06:02:02;42.63;;;34.42;;
17790;SDS011;9019;48.132;-1.210;2023-06-14T06:04:30;42.00;;;33.80;;
17790;SDS011;9019;48.132;-1.210;2023-06-14T06:06:57;38.53;;;32.45;;
17790;SDS011;9019;48.132;-1.210;2023-06-14T06:09:24;40.88;;;33.65;;
17790;SDS011;9019;48.132;-1.210;2023-06-14T06:11:53;38.85;;;31.17;;
17790;SDS011;9019;48.132;-1.210;2023-06-14T06:14:20;35.78;;;29.73;;
17790;SDS011;9019;48.132;-1.210;2023-06-14T06:16:47;33.35;;;29.67;;
17790;SDS011;9019;48.132;-1.210;2023-06-14T06:19:14;36.88;;;29.58;;
17790;SDS011;9019;48.132;-1.210;2023-06-14T06:21:42;34.00;;;28.02;;
17790;SDS011;9019;48.132;-1.210;2023-06-14T06:24:09;33.50;;;28.23;;
17790;SDS011;9019;48.132;-1.210;2023-06-14T06:26:37;33.53;;;27.85;;
17790;SDS011;9019;48.132;-1.210;2023-06-14T06:29:06;32.70;;;26.95;;
17790;SDS011;9019;48.132;-1.210;2023-06-14T06:31:33;31.15;;;27.85;;
17790;SDS011;9019;48.132;-1.210;2023-06-14T06:34:00;28.17;;;25.13;;
17790;SDS011;9019;48.132;-1.210;2023-06-14T06:36:28;33.53;;;26.00;;
17790;SDS011;9019;48.132;-1.210;2023-06-14T06:38:55;30.45;;;26.58;;
17790;SDS011;9019;48.132;-1.210;2023-06-14T06:41:22;29.35;;;25.38;;
17790;SDS011;9019;48.132;-1.210;2023-06-14T06:43:50;28.95;;;25.27;;
17790;SDS011;9019;48.132;-1.210;2023-06-14T06:46:19;32.78;;;24.48;;
17790;SDS011;9019;48.132;-1.210;2023-06-14T06:48:46;26.30;;;23.60;;
17790;SDS011;9019;48.132;-1.210;2023-06-14T06:51:13;29.65;;;24.67;;
17790;SDS011;9019;48.132;-1.210;2023-06-14T06:53:42;26.85;;;23.38;;
17790;SDS011;9019;48.132;-1.210;2023-06-14T06:56:10;25.17;;;22.08;;
17790;SDS011;9019;48.132;-1.210;2023-06-14T06:58:37;25.88;;;22.50;;
17790;SDS011;9019;48.132;-1.210;2023-06-14T07:01:04;26.92;;;22.75;;
17790;SDS011;9019;48.132;-1.210;2023-06-14T07:03:35;23.35;;;20.85;;
17790;SDS011;9019;48.132;-1.210;2023-06-14T07:06:03;27.20;;;22.75;;
17790;SDS011;9019;48.132;-1.210;2023-06-14T07:08:30;24.13;;;21.02;;
17790;SDS011;9019;48.132;-1.210;2023-06-14T07:10:58;26.67;;;22.95;;
17790;SDS011;9019;48.132;-1.210;2023-06-14T07:13:25;27.08;;;21.52;;
17790;SDS011;9019;48.132;-1.210;2023-06-14T07:15:53;24.88;;;20.42;;
17790;SDS011;9019;48.132;-1.210;2023-06-14T07:18:21;23.73;;;20.17;;
17790;SDS011;9019;48.132;-1.210;2023-06-14T07:20:50;23.25;;;19.17;;
17790;SDS011;9019;48.132;-1.210;2023-06-14T07:23:18;20.50;;;17.33;;
17790;SDS011;9019;48.132;-1.210;2023-06-14T07:25:45;22.38;;;19.75;;
17790;SDS011;9019;48.132;-1.210;2023-06-14T07:28:13;23.58;;;20.50;;
17790;SDS011;9019;48.132;-1.210;2023-06-14T07:30:40;24.58;;;21.15;;
17790;SDS011;9019;48.132;-1.210;2023-06-14T07:33:07;23.83;;;21.10;;
17790;SDS011;9019;48.132;-1.210;2023-06-14T07:35:35;21.58;;;19.15;;
17790;SDS011;9019;48.132;-1.210;2023-06-14T07:38:04;24.30;;;20.48;;
17790;SDS011;9019;48.132;-1.210;2023-06-14T07:40:31;19.02;;;15.82;;
17790;SDS011;9019;48.132;-1.210;2023-06-14T07:42:58;22.13;;;19.45;;
17790;SDS011;9019;48.132;-1.210;2023-06-14T07:45:26;20.95;;;18.50;;
17790;SDS011;9019;48.132;-1.210;2023-06-14T07:47:53;19.60;;;17.58;;
17790;SDS011;9019;48.132;-1.210;2023-06-14T07:50:21;19.95;;;17.85;;
17790;SDS011;9019;48.132;-1.210;2023-06-14T07:52:48;20.95;;;18.48;;
17790;SDS011;9019;48.132;-1.210;2023-06-14T07:55:17;20.92;;;18.80;;
17790;SDS011;9019;48.132;-1.210;2023-06-14T07:57:44;20.50;;;18.48;;
17790;SDS011;9019;48.132;-1.210;2023-06-14T08:00:12;19.80;;;17.80;;
17790;SDS011;9019;48.132;-1.210;2023-06-14T08:02:40;19.45;;;17.45;;
17790;SDS011;9019;48.132;-1.210;2023-06-14T08:05:08;21.02;;;18.33;;
17790;SDS011;9019;48.132;-1.210;2023-06-14T08:07:36;17.92;;;16.20;;
17790;SDS011;9019;48.132;-1.210;2023-06-14T08:10:03;20.30;;;17.17;;
17790;SDS011;9019;48.132;-1.210;2023-06-14T08:12:32;19.63;;;17.63;;
17790;SDS011;9019;48.132;-1.210;2023-06-14T08:15:00;19.17;;;16.05;;
17790;SDS011;9019;48.132;-1.210;2023-06-14T08:17:27;17.98;;;16.13;;
17790;SDS011;9019;48.132;-1.210;2023-06-14T08:19:54;20.08;;;18.05;;
17790;SDS011;9019;48.132;-1.210;2023-06-14T08:22:22;17.40;;;15.52;;
17790;SDS011;9019;48.132;-1.210;2023-06-14T08:24:51;18.02;;;15.45;;
17790;SDS011;9019;48.132;-1.210;2023-06-14T08:27:19;18.02;;;16.23;;
17790;SDS011;9019;48.132;-1.210;2023-06-14T08:29:48;18.65;;;14.80;;
17790;SDS011;9019;48.132;-1.210;2023-06-14T08:32:16;18.60;;;15.88;;
17790;SDS011;9019;48.132;-1.210;2023-06-14T08:34:43;17.77;;;15.68;;
17790;SDS011;9019;48.132;-1.210;2023-06-14T08:37:11;17.13;;;14.95;;
17790;SDS011;9019;48.132;-1.210;2023-06-14T08:39:38;17.92;;;13.55;;
17790;SDS011;9019;48.132;-1.210;2023-06-14T08:42:06;16.25;;;14.15;;
17790;SDS011;9019;48.132;-1.210;2023-06-14T08:44:34;14.65;;;12.35;;
17790;SDS011;9019;48.132;-1.210;2023-06-14T08:47:03;15.57;;;13.82;;
17790;SDS011;9019;48.132;-1.210;2023-06-14T08:49:31;13.52;;;12.10;;
17790;SDS011;9019;48.132;-1.210;2023-06-14T08:51:59;14.48;;;12.85;;
17790;SDS011;9019;48.132;-1.210;2023-06-14T08:54:26;16.25;;;13.18;;
17790;SDS011;9019;48.132;-1.210;2023-06-14T08:56:55;15.25;;;13.68;;
17790;SDS011;9019;48.132;-1.210;2023-06-14T08:59:23;18.27;;;13.60;;
17790;SDS011;9019;48.132;-1.210;2023-06-14T09:01:50;15.32;;;12.50;;
17790;SDS011;9019;48.132;-1.210;2023-06-14T09:04:20;13.55;;;12.20;;
17790;SDS011;9019;48.132;-1.210;2023-06-14T09:06:49;14.13;;;12.38;;
17790;SDS011;9019;48.132;-1.210;2023-06-14T09:09:18;15.90;;;12.77;;
17790;SDS011;9019;48.132;-1.210;2023-06-14T09:11:45;13.05;;;11.40;;
17790;SDS011;9019;48.132;-1.210;2023-06-14T09:14:13;11.88;;;10.50;;
17790;SDS011;9019;48.132;-1.210;2023-06-14T09:16:40;13.02;;;11.80;;
17790;SDS011;9019;48.132;-1.210;2023-06-14T09:19:08;13.45;;;11.98;;
17790;SDS011;9019;48.132;-1.210;2023-06-14T09:21:37;13.52;;;12.32;;
17790;SDS011;9019;48.132;-1.210;2023-06-14T09:24:05;11.93;;;10.73;;
17790;SDS011;9019;48.132;-1.210;2023-06-14T09:26:32;12.30;;;10.77;;
17790;SDS011;9019;48.132;-1.210;2023-06-14T09:28:59;13.13;;;10.90;;
17790;SDS011;9019;48.132;-1.210;2023-06-14T09:31:27;13.55;;;10.57;;
17790;SDS011;9019;48.132;-1.210;2023-06-14T09:33:56;11.48;;;9.80;;
17790;SDS011;9019;48.132;-1.210;2023-06-14T09:36:24;11.95;;;10.63;;
17790;SDS011;9019;48.132;-1.210;2023-06-14T09:38:53;10.80;;;9.60;;
17790;SDS011;9019;48.132;-1.210;2023-06-14T09:41:21;11.10;;;9.27;;
17790;SDS011;9019;48.132;-1.210;2023-06-14T09:43:57;9.88;;;8.98;;
17790;SDS011;9019;48.132;-1.210;2023-06-14T09:46:27;9.35;;;8.43;;
17790;SDS011;9019;48.132;-1.210;2023-06-14T09:48:54;9.38;;;8.32;;
17790;SDS011;9019;48.132;-1.210;2023-06-14T09:51:22;11.75;;;10.57;;
17790;SDS011;9019;48.132;-1.210;2023-06-14T09:53:50;10.35;;;9.35;;
17790;SDS011;9019;48.132;-1.210;2023-06-14T09:56:23;9.57;;;8.55;;
17790;SDS011;9019;48.132;-1.210;2023-06-14T09:58:54;13.07;;;9.32;;
17790;SDS011;9019;48.132;-1.210;2023-06-14T10:01:22;9.48;;;8.35;;
17790;SDS011;9019;48.132;-1.210;2023-06-14T10:03:50;10.75;;;9.68;;
17790;SDS011;9019;48.132;-1.210;2023-06-14T10:06:17;11.52;;;10.25;;
17790;SDS011;9019;48.132;-1.210;2023-06-14T10:08:46;11.13;;;8.98;;
17790;SDS011;9019;48.132;-1.210;2023-06-14T10:11:14;14.35;;;9.73;;
17790;SDS011;9019;48.132;-1.210;2023-06-14T10:13:43;11.18;;;9.75;;
17790;SDS011;9019;48.132;-1.210;2023-06-14T10:16:12;10.70;;;8.88;;
17790;SDS011;9019;48.132;-1.210;2023-06-14T10:18:43;9.50;;;8.52;;
17790;SDS011;9019;48.132;-1.210;2023-06-14T10:21:13;11.57;;;9.07;;
17790;SDS011;9019;48.132;-1.210;2023-06-14T10:23:44;11.40;;;8.73;;
17790;SDS011;9019;48.132;-1.210;2023-06-14T10:26:19;10.63;;;9.50;;
17790;SDS011;9019;48.132;-1.210;2023-06-14T10:28:58;13.05;;;9.73;;
17790;SDS011;9019;48.132;-1.210;2023-06-14T10:31:41;9.95;;;8.85;;
17790;SDS011;9019;48.132;-1.210;2023-06-14T10:34:10;9.88;;;8.88;;
17790;SDS011;9019;48.132;-1.210;2023-06-14T10:36:37;11.50;;;9.10;;
17790;SDS011;9019;48.132;-1.210;2023-06-14T10:39:06;11.63;;;8.95;;
17790;SDS011;9019;48.132;-1.210;2023-06-14T10:41:37;9.85;;;8.68;;
17790;SDS011;9019;48.132;-1.210;2023-06-14T10:46:54;9.60;;;8.52;;
17790;SDS011;9019;48.132;-1.210;2023-06-14T10:49:36;10.27;;;8.90;;
17790;SDS011;9019;48.132;-1.210;2023-06-14T10:52:07;12.23;;;8.77;;
17790;SDS011;9019;48.132;-1.210;2023-06-14T10:54:36;9.90;;;8.90;;
17790;SDS011;9019;48.132;-1.210;2023-06-14T10:57:04;11.07;;;8.50;;
17790;SDS011;9019;48.132;-1.210;2023-06-14T10:59:33;11.82;;;9.55;;
17790;SDS011;9019;48.132;-1.210;2023-06-14T11:02:10;10.68;;;8.88;;
17790;SDS011;9019;48.132;-1.210;2023-06-14T11:04:47;9.63;;;8.70;;
17790;SDS011;9019;48.132;-1.210;2023-06-14T11:07:20;12.15;;;9.10;;
17790;SDS011;9019;48.132;-1.210;2023-06-14T11:10:02;10.93;;;9.00;;
17790;SDS011;9019;48.132;-1.210;2023-06-14T11:12:33;9.75;;;8.40;;
17790;SDS011;9019;48.132;-1.210;2023-06-14T11:15:02;10.23;;;8.98;;
17790;SDS011;9019;48.132;-1.210;2023-06-14T11:17:31;9.68;;;8.68;;
17790;SDS011;9019;48.132;-1.210;2023-06-14T11:20:09;10.50;;;8.88;;
17790;SDS011;9019;48.132;-1.210;2023-06-14T11:22:41;11.65;;;8.38;;
17790;SDS011;9019;48.132;-1.210;2023-06-14T11:25:08;9.43;;;8.52;;
17790;SDS011;9019;48.132;-1.210;2023-06-14T11:27:36;12.43;;;9.23;;
17790;SDS011;9019;48.132;-1.210;2023-06-14T11:30:03;13.07;;;9.70;;
17790;SDS011;9019;48.132;-1.210;2023-06-14T11:32:35;9.98;;;8.60;;
17790;SDS011;9019;48.132;-1.210;2023-06-14T11:35:02;11.57;;;8.48;;
17790;SDS011;9019;48.132;-1.210;2023-06-14T11:37:31;9.98;;;8.65;;
17790;SDS011;9019;48.132;-1.210;2023-06-14T11:39:59;9.20;;;8.38;;
17790;SDS011;9019;48.132;-1.210;2023-06-14T11:42:26;10.85;;;8.65;;
17790;SDS011;9019;48.132;-1.210;2023-06-14T11:44:55;10.30;;;9.35;;
17790;SDS011;9019;48.132;-1.210;2023-06-14T11:47:22;10.25;;;9.05;;
17790;SDS011;9019;48.132;-1.210;2023-06-14T11:49:51;9.52;;;7.93;;
17790;SDS011;9019;48.132;-1.210;2023-06-14T11:52:19;9.07;;;8.20;;
17790;SDS011;9019;48.132;-1.210;2023-06-14T11:54:47;10.35;;;8.52;;
17790;SDS011;9019;48.132;-1.210;2023-06-14T11:57:14;9.02;;;8.15;;
17790;SDS011;9019;48.132;-1.210;2023-06-14T11:59:43;9.18;;;7.88;;
17790;SDS011;9019;48.132;-1.210;2023-06-14T12:02:13;8.20;;;7.40;;
17790;SDS011;9019;48.132;-1.210;2023-06-14T12:04:41;13.30;;;8.80;;
17790;SDS011;9019;48.132;-1.210;2023-06-14T12:07:10;9.63;;;8.63;;
17790;SDS011;9019;48.132;-1.210;2023-06-14T12:09:40;10.07;;;8.07;;
17790;SDS011;9019;48.132;-1.210;2023-06-14T12:12:09;8.95;;;8.15;;
17790;SDS011;9019;48.132;-1.210;2023-06-14T12:14:36;8.82;;;7.93;;
17790;SDS011;9019;48.132;-1.210;2023-06-14T12:17:04;9.65;;;8.25;;
17790;SDS011;9019;48.132;-1.210;2023-06-14T12:19:32;8.43;;;7.50;;
17790;SDS011;9019;48.132;-1.210;2023-06-14T12:21:59;9.43;;;8.30;;
17790;SDS011;9019;48.132;-1.210;2023-06-14T12:24:31;8.88;;;7.97;;
17790;SDS011;9019;48.132;-1.210;2023-06-14T12:26:58;7.60;;;6.95;;
17790;SDS011;9019;48.132;-1.210;2023-06-14T12:29:28;10.57;;;7.88;;
17790;SDS011;9019;48.132;-1.210;2023-06-14T12:31:55;11.13;;;8.18;;
17790;SDS011;9019;48.132;-1.210;2023-06-14T12:34:22;11.65;;;8.85;;
17790;SDS011;9019;48.132;-1.210;2023-06-14T12:36:49;8.82;;;8.02;;
17790;SDS011;9019;48.132;-1.210;2023-06-14T12:39:16;8.38;;;7.68;;
17790;SDS011;9019;48.132;-1.210;2023-06-14T12:41:45;7.80;;;7.10;;
17790;SDS011;9019;48.132;-1.210;2023-06-14T12:44:12;8.38;;;7.55;;
17790;SDS011;9019;48.132;-1.210;2023-06-14T12:46:39;8.48;;;7.60;;
17790;SDS011;9019;48.132;-1.210;2023-06-14T12:49:08;7.85;;;7.13;;
17790;SDS011;9019;48.132;-1.210;2023-06-14T12:51:35;12.30;;;7.15;;
17790;SDS011;9019;48.132;-1.210;2023-06-14T12:54:02;10.27;;;7.45;;
17790;SDS011;9019;48.132;-1.210;2023-06-14T12:56:30;8.52;;;7.82;;
17790;SDS011;9019;48.132;-1.210;2023-06-14T12:58:59;8.10;;;7.32;;
17790;SDS011;9019;48.132;-1.210;2023-06-14T13:01:26;8.35;;;7.55;;
17790;SDS011;9019;48.132;-1.210;2023-06-14T13:03:53;11.93;;;7.97;;
17790;SDS011;9019;48.132;-1.210;2023-06-14T13:06:20;8.20;;;7.45;;
17790;SDS011;9019;48.132;-1.210;2023-06-14T13:08:48;8.88;;;7.97;;
17790;SDS011;9019;48.132;-1.210;2023-06-14T13:11:15;8.60;;;7.90;;
17790;SDS011;9019;48.132;-1.210;2023-06-14T13:13:45;8.63;;;6.97;;
17790;SDS011;9019;48.132;-1.210;2023-06-14T13:16:13;8.50;;;7.55;;
17790;SDS011;9019;48.132;-1.210;2023-06-14T13:18:41;7.72;;;7.03;;
17790;SDS011;9019;48.132;-1.210;2023-06-14T13:21:08;8.25;;;7.50;;
17790;SDS011;9019;48.132;-1.210;2023-06-14T13:23:35;7.97;;;7.28;;
17790;SDS011;9019;48.132;-1.210;2023-06-14T13:26:02;7.97;;;6.50;;
17790;SDS011;9019;48.132;-1.210;2023-06-14T13:28:30;7.05;;;6.40;;
17790;SDS011;9019;48.132;-1.210;2023-06-14T13:30:57;7.13;;;6.50;;
17790;SDS011;9019;48.132;-1.210;2023-06-14T13:33:27;7.85;;;7.10;;
17790;SDS011;9019;48.132;-1.210;2023-06-14T13:35:54;7.53;;;6.82;;
17790;SDS011;9019;48.132;-1.210;2023-06-14T13:38:21;8.15;;;7.10;;
17790;SDS011;9019;48.132;-1.210;2023-06-14T13:40:48;7.43;;;6.82;;
17790;SDS011;9019;48.132;-1.210;2023-06-14T13:43:16;8.02;;;7.18;;
17790;SDS011;9019;48.132;-1.210;2023-06-14T13:45:43;8.60;;;7.70;;
17790;SDS011;9019;48.132;-1.210;2023-06-14T13:48:10;8.07;;;6.95;;
17790;SDS011;9019;48.132;-1.210;2023-06-14T13:50:39;7.85;;;7.05;;
17790;SDS011;9019;48.132;-1.210;2023-06-14T13:53:06;8.52;;;7.13;;
17790;SDS011;9019;48.132;-1.210;2023-06-14T13:55:34;6.38;;;5.88;;
17790;SDS011;9019;48.132;-1.210;2023-06-14T13:58:01;8.35;;;6.60;;
17790;SDS011;9019;48.132;-1.210;2023-06-14T14:00:28;7.80;;;7.00;;
17790;SDS011;9019;48.132;-1.210;2023-06-14T14:02:55;7.45;;;6.75;;
17790;SDS011;9019;48.132;-1.210;2023-06-14T14:05:24;6.32;;;5.75;;
17790;SDS011;9019;48.132;-1.210;2023-06-14T14:07:56;6.15;;;5.65;;
17790;SDS011;9019;48.132;-1.210;2023-06-14T14:10:23;9.02;;;7.00;;
17790;SDS011;9019;48.132;-1.210;2023-06-14T14:12:51;7.20;;;6.57;;
17790;SDS011;9019;48.132;-1.210;2023-06-14T14:15:19;7.93;;;6.78;;
17790;SDS011;9019;48.132;-1.210;2023-06-14T14:17:47;7.07;;;6.38;;
17790;SDS011;9019;48.132;-1.210;2023-06-14T14:20:14;7.43;;;6.60;;
17790;SDS011;9019;48.132;-1.210;2023-06-14T14:22:42;7.40;;;6.70;;
17790;SDS011;9019;48.132;-1.210;2023-06-14T14:25:10;7.55;;;6.65;;
17790;SDS011;9019;48.132;-1.210;2023-06-14T14:27:38;9.60;;;7.30;;
17790;SDS011;9019;48.132;-1.210;2023-06-14T14:30:05;8.85;;;7.13;;
17790;SDS011;9019;48.132;-1.210;2023-06-14T14:32:33;9.93;;;7.22;;
17790;SDS011;9019;48.132;-1.210;2023-06-14T14:35:00;14.30;;;7.43;;
17790;SDS011;9019;48.132;-1.210;2023-06-14T14:37:27;13.10;;;7.60;;